Ernestville, Missouri
Current Conditions -  °F | °C
As of 2:35 PM on Thursday 23 Oct 2014 (Local Time) from KRCM Reporting Station
Scattered Clouds Scattered Clouds  
Wind Chill: 68°   Ceiling: Unl
Heat Index: 68°   Visibility: 10mi
Dew Point: 55°   Wind: 13mph
Humidity: 64%   Direction: 210°SSW
Pressure: 30.06"   Gusts: NA
Location:  38.9694°N, 93.6269°W
Report Text: KRCM 231935Z AUTO 21011KT 10SM SCT020 SCT031 SCT050 20/13 A3006 RMK AO2
Loading
Personal Weather Stations






























Interactive Weather Map
Tropical Storm Tracking
New forecast layout! Learn more

10-Day Weather Forecast

Advertisements
Track Severe Weather on mobile